createdAt,value
2022-10-01T00:01:43.373Z,99431.94
2022-10-01T00:04:16.682Z,99444.59
2022-10-01T00:06:45.247Z,99502.12
2022-10-01T00:09:19.997Z,99558.66
2022-10-01T00:11:48.342Z,99534.16
2022-10-01T00:14:25.886Z,99438.38
2022-10-01T00:17:00.299Z,99441.88
2022-10-01T00:19:30.804Z,99425.88
2022-10-01T00:22:02.275Z,99442.94
2022-10-01T00:24:31.134Z,99439.66
2022-10-01T00:27:02.857Z,99443.50
2022-10-01T00:29:32.388Z,99458.84
2022-10-01T00:32:03.393Z,99459.78
2022-10-01T00:34:33.581Z,99449.53
2022-10-01T00:37:04.489Z,99451.06
2022-10-01T00:39:33.172Z,99433.72
2022-10-01T00:42:06.970Z,99440.69
2022-10-01T00:44:36.149Z,99448.91
2022-10-01T00:47:12.412Z,99448.03
2022-10-01T00:49:49.991Z,99445.13
2022-10-01T00:52:19.663Z,99443.75
2022-10-01T00:55:00.199Z,99446.28
2022-10-01T00:57:31.126Z,99438.88
2022-10-01T01:00:02.202Z,99435.63
2022-10-01T01:02:32.996Z,99430.84
2022-10-01T01:05:03.163Z,99426.84
2022-10-01T01:07:36.547Z,99433.78
2022-10-01T01:10:05.561Z,99428.84
2022-10-01T01:12:41.769Z,99432.09
2022-10-01T01:15:19.639Z,99434.69
2022-10-01T01:17:52.553Z,99438.03
2022-10-01T01:20:50.560Z,99439.38
2022-10-01T01:23:38.692Z,99436.84
2022-10-01T01:26:17.739Z,99433.78
2022-10-01T01:28:59.067Z,99436.06
2022-10-01T01:31:33.189Z,99447.63
2022-10-01T01:34:02.351Z,99441.50
2022-10-01T01:36:37.302Z,99451.38
2022-10-01T01:39:07.289Z,99443.72
2022-10-01T01:41:38.480Z,99443.88
2022-10-01T01:44:09.949Z,99448.12
2022-10-01T01:46:49.961Z,99449.12
2022-10-01T01:56:59.341Z,99431.16
2022-10-01T01:59:48.117Z,99418.47
2022-10-01T02:02:19.198Z,99408.94
2022-10-01T02:04:56.096Z,99414.28
2022-10-01T02:07:29.200Z,99408.13
2022-10-01T02:10:01.327Z,99401.97
2022-10-01T02:12:32.734Z,99383.75
2022-10-01T02:15:05.557Z,99391.25
2022-10-01T02:17:35.527Z,99401.91
2022-10-01T02:20:08.051Z,99410.81
2022-10-01T02:22:40.441Z,99420.81
2022-10-01T02:25:11.804Z,99422.53
2022-10-01T02:27:45.622Z,99429.09
2022-10-01T02:30:25.878Z,99423.81
2022-10-01T02:32:56.562Z,99414.34
2022-10-01T02:35:29.317Z,99413.50
2022-10-01T02:38:04.315Z,99430.91
2022-10-01T02:40:33.779Z,99422.41
2022-10-01T02:43:08.365Z,99425.78
2022-10-01T02:45:47.464Z,99436.22
2022-10-01T02:48:28.564Z,99424.63
2022-10-01T02:50:59.384Z,99425.78
2022-10-01T03:22:10.246Z,99419.81
2022-10-01T03:24:47.945Z,99429.87
2022-10-01T03:27:17.739Z,99454.19
2022-10-01T03:29:48.981Z,99456.78
2022-10-01T03:32:17.735Z,99470.34
2022-10-01T03:34:51.554Z,99477.22
2022-10-01T04:08:06.745Z,99416.47
2022-10-01T04:10:36.185Z,99427.78
2022-10-01T04:13:04.911Z,99423.81
2022-10-01T04:15:33.854Z,99419.69
2022-10-01T04:18:06.022Z,99419.78
2022-10-01T04:20:34.664Z,99424.59
2022-10-01T04:23:09.039Z,99417.41
2022-10-01T04:25:38.760Z,99425.12
2022-10-01T04:28:10.222Z,99418.84
2022-10-01T04:30:39.164Z,99415.97
2022-10-01T04:33:12.130Z,99422.47
2022-10-01T04:35:40.827Z,99434.47
2022-10-01T04:38:17.745Z,99423.91
2022-10-01T04:40:57.564Z,99419.66
2022-10-01T04:43:27.490Z,99421.19
2022-10-01T04:45:57.310Z,99423.25
2022-10-01T04:48:26.414Z,99423.34
2022-10-01T04:50:58.344Z,99429.97
2022-10-01T04:53:26.997Z,99430.69
2022-10-01T04:56:01.208Z,99425.91
2022-10-01T04:58:31.846Z,99434.72
2022-10-01T05:01:02.307Z,99434.75
2022-10-01T05:03:31.681Z,99437.09
2022-10-01T05:06:01.997Z,99434.12
2022-10-01T05:08:31.265Z,99449.31
2022-10-01T05:11:01.497Z,99465.63
2022-10-01T05:13:31.935Z,99485.00
2022-10-01T05:16:03.807Z,99493.13
2022-10-01T05:18:32.490Z,99475.16
2022-10-01T05:21:05.846Z,99479.59
2022-10-01T06:01:20.624Z,99444.44
2022-10-01T06:03:57.551Z,99432.00
2022-10-01T06:13:27.308Z,99415.97
2022-10-01T06:16:13.277Z,99411.84
2022-10-01T06:18:49.586Z,99398.56
2022-10-01T06:21:19.072Z,99393.50
2022-10-01T06:23:50.522Z,99397.19
2022-10-01T06:26:21.494Z,99398.37
2022-10-01T06:28:51.478Z,99426.47
2022-10-01T06:31:25.319Z,99443.72
2022-10-01T06:33:55.066Z,99455.69
2022-10-01T06:36:24.913Z,99447.28
2022-10-01T06:38:53.265Z,99442.97
2022-10-01T06:41:21.802Z,99436.81
2022-10-01T06:43:57.982Z,99441.16
2022-10-01T06:46:32.493Z,99442.09
2022-10-01T06:49:02.441Z,99446.38
2022-10-01T06:51:51.543Z,99445.00
2022-10-01T06:54:23.198Z,99451.63
2022-10-01T06:56:54.144Z,99457.12
2022-10-01T06:59:22.742Z,99447.91
2022-10-01T07:01:57.241Z,99445.81
2022-10-01T07:04:27.207Z,99442.41
2022-10-01T07:06:57.711Z,99439.72
2022-10-01T07:09:28.491Z,99435.31
2022-10-01T07:11:57.322Z,99436.13
2022-10-01T07:14:26.296Z,99421.97
2022-10-01T07:16:57.719Z,99429.75
2022-10-01T07:19:31.817Z,99415.66
2022-10-01T07:22:01.091Z,99415.16
2022-10-01T07:24:29.734Z,99423.22
2022-10-01T07:27:07.252Z,99424.72
2022-10-01T07:29:36.174Z,99423.53
2022-10-01T07:32:08.823Z,99420.41
2022-10-01T07:34:40.656Z,99415.84
2022-10-01T07:37:09.530Z,99410.66
2022-10-01T07:39:38.127Z,99400.97
2022-10-01T07:42:09.429Z,99395.09
2022-10-01T07:44:38.005Z,99404.66
2022-10-01T07:47:08.803Z,99410.59
2022-10-01T07:49:37.081Z,99411.53
2022-10-01T07:52:15.891Z,99410.41
2022-10-01T07:54:44.216Z,99416.31
2022-10-01T07:57:20.859Z,99409.00
2022-10-01T07:59:54.858Z,99412.63
2022-10-01T08:02:24.602Z,99412.63
2022-10-01T08:07:48.790Z,99417.09
2022-10-01T08:10:24.215Z,99405.38
2022-10-01T08:12:52.948Z,99403.75
2022-10-01T08:15:22.507Z,99411.25
2022-10-01T08:17:50.800Z,99409.09
2022-10-01T08:20:21.510Z,99399.13
2022-10-01T08:22:51.444Z,99403.03
2022-10-01T08:25:26.073Z,99416.31
2022-10-01T08:27:54.876Z,99406.44
2022-10-01T08:30:29.248Z,99395.06
2022-10-01T08:32:57.940Z,99387.19
2022-10-01T08:35:28.996Z,99380.00
2022-10-01T08:38:06.110Z,99376.84
2022-10-01T08:40:36.883Z,99378.63
2022-10-01T08:43:12.847Z,99374.00
2022-10-01T08:45:43.263Z,99368.47
2022-10-01T08:48:16.734Z,99368.06
2022-10-01T08:50:46.682Z,99368.19
2022-10-01T08:53:26.402Z,99355.94
2022-10-01T08:55:55.816Z,99364.66
2022-10-01T08:58:25.067Z,99368.00
2022-10-01T09:00:56.453Z,99368.84
2022-10-01T09:03:26.318Z,99366.50
2022-10-01T09:06:05.028Z,99362.75
2022-10-01T09:08:44.619Z,99368.44
2022-10-01T09:11:25.351Z,99367.38
2022-10-01T09:13:58.042Z,99367.50
2022-10-01T09:16:30.201Z,99366.75
2022-10-01T09:19:06.760Z,99368.69
2022-10-01T09:21:39.883Z,99362.50
2022-10-01T09:24:11.541Z,99369.72
2022-10-01T09:26:39.808Z,99355.69
2022-10-01T09:29:10.327Z,99362.06
2022-10-01T09:31:39.166Z,99346.53
2022-10-01T09:34:13.772Z,99347.25
2022-10-01T09:36:57.498Z,99345.69
2022-10-01T09:39:43.285Z,99349.25
2022-10-01T09:42:11.794Z,99351.69
2022-10-01T09:44:40.725Z,99351.84
2022-10-01T09:47:21.633Z,99351.84
2022-10-01T09:49:50.468Z,99351.13
2022-10-01T09:52:20.267Z,99355.94
2022-10-01T09:54:50.382Z,99357.62
2022-10-01T09:57:23.645Z,99343.78
2022-10-01T09:59:54.945Z,99328.75
2022-10-01T10:02:26.877Z,99338.00
2022-10-01T10:05:11.034Z,99334.78
2022-10-01T10:07:50.886Z,99331.37
2022-10-01T10:10:25.589Z,99323.75
2022-10-01T10:12:58.316Z,99325.75
2022-10-01T10:15:31.240Z,99319.66
2022-10-01T10:17:59.706Z,99323.88
2022-10-01T10:20:31.154Z,99325.91
2022-10-01T10:23:17.782Z,99326.75
2022-10-01T10:26:02.821Z,99322.94
2022-10-01T10:28:43.624Z,99313.81
2022-10-01T10:31:16.840Z,99311.09
2022-10-01T10:33:52.125Z,99305.53
2022-10-01T10:36:29.321Z,99306.16
2022-10-01T10:38:57.623Z,99300.16
2022-10-01T10:41:27.379Z,99302.88
2022-10-01T10:43:58.906Z,99298.66
2022-10-01T10:46:30.526Z,99302.13
2022-10-01T10:49:12.169Z,99293.19
2022-10-01T10:51:50.334Z,99293.25
2022-10-01T10:54:23.181Z,99288.47
2022-10-01T10:56:56.166Z,99282.44
2022-10-01T10:59:25.792Z,99279.38
2022-10-01T11:01:54.664Z,99268.53
2022-10-01T11:04:25.992Z,99263.63
2022-10-01T11:06:55.419Z,99262.59
2022-10-01T11:09:23.713Z,99266.81
2022-10-01T11:11:58.179Z,99259.19
2022-10-01T11:14:52.304Z,99252.03
2022-10-01T11:17:31.046Z,99244.50
2022-10-01T11:20:19.962Z,99239.78
2022-10-01T11:22:53.975Z,99229.00
2022-10-01T11:25:28.968Z,99222.66
2022-10-01T11:27:58.912Z,99224.47
2022-10-01T11:30:33.663Z,99216.78
2022-10-01T11:33:04.808Z,99215.53
2022-10-01T11:35:44.186Z,99211.31
2022-10-01T11:38:25.353Z,99197.41
2022-10-01T11:40:55.814Z,99199.25
2022-10-01T11:43:25.103Z,99198.25
2022-10-01T11:45:58.619Z,99190.94
2022-10-01T11:48:27.840Z,99183.59
2022-10-01T11:51:01.439Z,99181.53
2022-10-01T11:53:33.592Z,99177.63
2022-10-01T11:56:29.799Z,99183.84
2022-10-01T11:59:06.145Z,99177.94
2022-10-01T12:01:36.908Z,99173.28
2022-10-01T12:04:07.853Z,99164.91
2022-10-01T12:06:38.114Z,99172.44
2022-10-01T12:09:08.290Z,99170.78
2022-10-01T12:11:37.391Z,99167.22
2022-10-01T12:14:11.256Z,99171.31
2022-10-01T12:16:43.159Z,99159.16
2022-10-01T12:19:13.943Z,99165.94
2022-10-01T12:21:42.938Z,99167.06
2022-10-01T12:24:13.076Z,99166.88
2022-10-01T12:26:43.997Z,99164.44
2022-10-01T12:29:14.599Z,99162.13
2022-10-01T12:31:45.706Z,99160.66
2022-10-01T12:34:16.232Z,99166.50
2022-10-01T12:36:46.820Z,99160.00
2022-10-01T12:39:18.986Z,99160.41
2022-10-01T12:41:50.868Z,99161.53
2022-10-01T12:44:27.275Z,99163.06
2022-10-01T12:47:03.607Z,99166.19
2022-10-01T12:49:33.077Z,99159.94
2022-10-01T12:52:06.501Z,99152.03
2022-10-01T12:54:53.096Z,99135.50
2022-10-01T12:57:28.924Z,99128.50
2022-10-01T13:00:01.674Z,99120.72
2022-10-01T13:02:44.053Z,99112.78
2022-10-01T13:05:21.084Z,99117.75
2022-10-01T13:07:56.600Z,99110.25
2022-10-01T13:10:43.057Z,99105.62
2022-10-01T13:13:14.977Z,99095.34
2022-10-01T13:15:49.643Z,99100.66
2022-10-01T13:18:24.718Z,99096.44
2022-10-01T13:20:55.376Z,99079.59
2022-10-01T13:23:25.325Z,99076.84
2022-10-01T13:26:08.841Z,99084.25
2022-10-01T13:28:44.571Z,99079.25
2022-10-01T13:31:14.793Z,99069.16
2022-10-01T13:33:54.242Z,99066.78
2022-10-01T13:36:29.319Z,99052.69
2022-10-01T13:38:57.606Z,99042.84
2022-10-01T13:41:27.143Z,99055.19
2022-10-01T13:43:59.886Z,99084.53
2022-10-01T13:49:59.300Z,99076.50
2022-10-01T13:52:28.119Z,99074.03
2022-10-01T13:55:03.226Z,99070.38
2022-10-01T13:57:34.183Z,99073.66
2022-10-01T14:00:04.119Z,99061.34
2022-10-01T14:02:37.798Z,99049.34
2022-10-01T14:05:30.493Z,99054.66
2022-10-01T14:08:00.262Z,99055.06
2022-10-01T14:10:32.857Z,99062.44
2022-10-01T14:13:21.678Z,99067.09
2022-10-01T14:16:03.478Z,99068.31
2022-10-01T14:18:36.696Z,99069.66
2022-10-01T14:21:12.260Z,99067.56
2022-10-01T14:23:43.583Z,99059.78
2022-10-01T14:26:19.133Z,99067.66
2022-10-01T14:28:49.939Z,99065.69
2022-10-01T14:31:21.023Z,99061.66
2022-10-01T14:34:10.613Z,99064.72
2022-10-01T14:36:48.439Z,99059.19
2022-10-01T14:39:17.574Z,99056.84
2022-10-01T14:41:46.799Z,99050.69
2022-10-01T14:44:28.467Z,99047.81
2022-10-01T14:46:58.001Z,99049.91
2022-10-01T14:49:27.325Z,99051.56
2022-10-01T14:51:59.750Z,99051.00
2022-10-01T14:54:41.059Z,99048.03
2022-10-01T14:57:17.760Z,99039.22
2022-10-01T14:59:47.068Z,99045.69
2022-10-01T15:02:18.534Z,99052.34
2022-10-01T15:04:47.859Z,99045.50
2022-10-01T15:07:17.772Z,99059.00
2022-10-01T15:09:46.291Z,99058.22
2022-10-01T15:12:18.481Z,99064.47
2022-10-01T15:14:47.054Z,99066.03
2022-10-01T15:17:22.340Z,99073.50
2022-10-01T15:19:52.201Z,99068.75
2022-10-01T15:22:25.310Z,99071.87
2022-10-01T15:24:59.370Z,99076.19
2022-10-01T15:27:35.143Z,99080.75
2022-10-01T15:30:06.266Z,99073.63
2022-10-01T15:32:34.833Z,99076.94
2022-10-01T15:35:07.273Z,99076.94
2022-10-01T15:37:37.932Z,99077.38
2022-10-01T15:40:09.760Z,99084.47
2022-10-01T15:42:38.709Z,99079.37
2022-10-01T15:45:22.272Z,99075.00
2022-10-01T15:47:52.323Z,99081.00
2022-10-01T15:50:21.335Z,99083.94
2022-10-01T15:52:59.908Z,99081.31
2022-10-01T15:55:36.853Z,99078.59
2022-10-01T15:58:11.086Z,99083.69
2022-10-01T16:00:43.424Z,99080.94
2022-10-01T16:03:24.115Z,99084.16
2022-10-01T16:05:54.944Z,99081.84
2022-10-01T16:08:35.607Z,99082.31
2022-10-01T16:11:16.501Z,99079.69
2022-10-01T16:13:47.293Z,99074.16
2022-10-01T16:16:23.482Z,99078.22
2022-10-01T16:18:54.512Z,99084.03
2022-10-01T16:21:24.268Z,99080.81
2022-10-01T16:23:57.766Z,99080.41
2022-10-01T16:26:35.277Z,99088.16
2022-10-01T16:29:06.802Z,99079.25
2022-10-01T16:31:36.050Z,99088.66
2022-10-01T16:34:10.308Z,99083.31
2022-10-01T16:36:41.509Z,99086.97
2022-10-01T16:39:16.094Z,99091.97
2022-10-01T16:41:44.792Z,99087.41
2022-10-01T16:44:15.751Z,99080.25
2022-10-01T16:46:44.074Z,99079.37
2022-10-01T16:49:18.354Z,99072.56
2022-10-01T16:51:48.103Z,99079.88
2022-10-01T16:54:24.633Z,99083.00
2022-10-01T16:56:53.669Z,99080.63
2022-10-01T16:59:29.997Z,99082.41
2022-10-01T17:02:02.308Z,99078.31
2022-10-01T17:04:34.084Z,99079.47
2022-10-01T17:07:05.318Z,99075.69
2022-10-01T17:09:35.243Z,99077.59
2022-10-01T17:12:06.626Z,99079.84
2022-10-01T17:14:35.191Z,99070.34
2022-10-01T17:17:09.457Z,99059.97
2022-10-01T17:19:38.002Z,99067.66
2022-10-01T17:22:08.306Z,99061.25
2022-10-01T17:24:38.415Z,99058.63
2022-10-01T17:27:09.338Z,99065.44
2022-10-01T17:29:39.110Z,99058.94
2022-10-01T17:32:18.744Z,99061.31
2022-10-01T17:34:47.405Z,99070.50
2022-10-01T17:37:24.046Z,99074.09
2022-10-01T17:39:54.428Z,99064.25
2022-10-01T17:42:23.132Z,99070.53
2022-10-01T17:45:00.133Z,99071.41
2022-10-01T17:47:28.743Z,99080.47
2022-10-01T17:49:57.464Z,99082.09
2022-10-01T17:52:25.754Z,99084.19
2022-10-01T17:54:55.981Z,99082.88
2022-10-01T17:57:24.938Z,99078.28
2022-10-01T18:00:01.289Z,99084.66
2022-10-01T18:02:44.421Z,99085.34
2022-10-01T18:05:14.929Z,99095.41
2022-10-01T18:07:45.368Z,99100.50
2022-10-01T18:10:15.261Z,99100.97
2022-10-01T18:12:46.055Z,99098.81
2022-10-01T18:15:14.768Z,99091.56
2022-10-01T18:17:51.496Z,99091.44
2022-10-01T18:20:24.380Z,99098.28
2022-10-01T18:22:53.009Z,99111.94
2022-10-01T18:25:22.890Z,99121.50
2022-10-01T18:27:51.446Z,99121.41
2022-10-01T18:30:20.242Z,99129.56
2022-10-01T18:32:50.623Z,99137.53
2022-10-01T18:35:23.653Z,99143.59
2022-10-01T18:37:53.753Z,99134.38
2022-10-01T18:40:24.610Z,99146.00
2022-10-01T18:42:58.177Z,99148.63
2022-10-01T18:45:36.517Z,99152.94
2022-10-01T18:48:09.741Z,99150.66
2022-10-01T18:50:47.814Z,99158.16
2022-10-01T18:53:26.856Z,99156.75
2022-10-01T18:56:10.302Z,99153.31
2022-10-01T18:58:45.360Z,99156.47
2022-10-01T19:01:16.009Z,99152.97
2022-10-01T19:03:55.585Z,99159.44
2022-10-01T19:06:39.013Z,99165.31
2022-10-01T19:09:10.631Z,99172.97
2022-10-01T19:11:41.174Z,99176.75
2022-10-01T19:14:16.518Z,99173.69
2022-10-01T19:16:46.169Z,99171.66
2022-10-01T19:19:26.253Z,99177.84
2022-10-01T19:22:02.825Z,99172.78
2022-10-01T19:24:41.050Z,99175.47
2022-10-01T19:27:13.651Z,99172.75
2022-10-01T19:29:57.433Z,99174.34
2022-10-01T19:32:30.868Z,99179.25
2022-10-01T19:35:04.477Z,99180.88
2022-10-01T19:37:33.287Z,99176.41
2022-10-01T19:40:07.247Z,99181.59
2022-10-01T19:42:36.427Z,99192.47
2022-10-01T19:45:13.304Z,99203.97
2022-10-01T19:47:45.882Z,99201.13
2022-10-01T19:50:19.862Z,99206.72
2022-10-01T19:53:08.494Z,99197.72
2022-10-01T19:55:40.320Z,99195.31
2022-10-01T19:58:15.181Z,99202.75
2022-10-01T20:00:47.340Z,99209.16
2022-10-01T20:03:23.531Z,99200.81
2022-10-01T20:05:55.537Z,99207.50
2022-10-01T20:08:29.203Z,99210.75
2022-10-01T20:11:01.285Z,99204.97
2022-10-01T20:13:36.379Z,99213.09
2022-10-01T20:16:09.710Z,99207.34
2022-10-01T20:18:39.796Z,99206.25
2022-10-01T20:21:12.448Z,99203.06
2022-10-01T20:23:43.592Z,99208.78
2022-10-01T20:26:15.190Z,99208.22
2022-10-01T20:28:45.669Z,99215.03
2022-10-01T20:31:16.687Z,99217.03
2022-10-01T20:33:48.047Z,99219.28
2022-10-01T20:36:17.589Z,99210.19
2022-10-01T20:38:48.653Z,99219.59
2022-10-01T20:41:18.106Z,99229.22
2022-10-01T20:43:51.067Z,99238.22
2022-10-01T20:46:22.747Z,99233.72
2022-10-01T20:48:56.352Z,99226.97
2022-10-01T20:51:25.209Z,99231.69
2022-10-01T20:53:54.658Z,99228.66
2022-10-01T20:56:23.266Z,99241.25
2022-10-01T20:58:54.238Z,99250.00
2022-10-01T21:01:24.898Z,99254.25
2022-10-01T21:03:55.694Z,99260.00
2022-10-01T21:06:25.713Z,99266.09
2022-10-01T21:08:57.516Z,99266.94
2022-10-01T21:11:28.173Z,99273.75
2022-10-01T21:13:58.662Z,99274.22
2022-10-01T21:16:48.509Z,99280.16
2022-10-01T21:19:27.763Z,99277.78
2022-10-01T21:22:05.802Z,99285.37
2022-10-01T21:25:11.923Z,99296.41
2022-10-01T21:27:48.181Z,99278.69
2022-10-01T21:30:17.035Z,99280.91
2022-10-01T21:33:02.511Z,99286.34
2022-10-01T21:35:33.466Z,99279.47
2022-10-01T21:38:06.379Z,99282.50
2022-10-01T21:40:38.674Z,99267.31
2022-10-01T21:43:10.073Z,99281.03
2022-10-01T21:45:39.888Z,99288.69
2022-10-01T21:48:30.282Z,99288.19
2022-10-01T21:51:05.664Z,99291.31
2022-10-01T21:53:53.741Z,99288.34
2022-10-01T21:56:29.492Z,99281.88
2022-10-01T21:59:06.791Z,99274.72
2022-10-01T22:01:55.633Z,99267.75
2022-10-01T22:04:43.398Z,99275.28
2022-10-01T22:07:14.652Z,99266.84
2022-10-01T22:09:51.210Z,99276.72
2022-10-01T22:12:42.653Z,99277.50
2022-10-01T22:15:16.800Z,99280.59
2022-10-01T22:17:46.175Z,99265.78
2022-10-01T22:20:16.822Z,99277.53
2022-10-01T22:22:47.840Z,99282.94
2022-10-01T22:25:19.533Z,99280.25
2022-10-01T22:27:49.534Z,99287.31
2022-10-01T22:30:18.620Z,99283.44
2022-10-01T22:32:49.744Z,99291.63
2022-10-01T22:35:26.230Z,99289.00
2022-10-01T22:38:02.848Z,99285.09
2022-10-01T22:40:33.467Z,99284.63
2022-10-01T22:43:02.484Z,99294.66
2022-10-01T22:45:35.640Z,99297.78
2022-10-01T22:48:06.934Z,99303.69
2022-10-01T22:50:44.553Z,99300.44
2022-10-01T22:53:27.038Z,99307.31
2022-10-01T22:55:58.460Z,99316.75
2022-10-01T22:58:40.861Z,99317.47
2022-10-01T23:01:13.000Z,99320.97
2022-10-01T23:03:56.895Z,99324.25
2022-10-01T23:06:48.318Z,99325.19
2022-10-01T23:09:31.056Z,99319.56
2022-10-01T23:12:01.923Z,99315.94
2022-10-01T23:14:35.752Z,99313.91
2022-10-01T23:17:06.262Z,99303.84
2022-10-01T23:19:37.339Z,99300.06
2022-10-01T23:22:11.083Z,99296.44
2022-10-01T23:24:48.080Z,99284.84
2022-10-01T23:27:21.924Z,99287.06
2022-10-01T23:30:00.769Z,99292.00
2022-10-01T23:32:47.150Z,99283.34
2022-10-01T23:35:16.214Z,99283.47
2022-10-01T23:37:52.665Z,99289.22
2022-10-01T23:40:28.976Z,99288.59
2022-10-01T23:42:58.307Z,99293.03
2022-10-01T23:45:28.866Z,99291.22
2022-10-01T23:47:59.521Z,99300.47
2022-10-01T23:50:32.370Z,99308.81
2022-10-01T23:53:16.530Z,99314.78
2022-10-01T23:56:04.446Z,99310.06
2022-10-01T23:58:36.609Z,99319.66
